Aérodrome :
LOGIN :

S'inscrire | Disclaimer

   EN    FR    IT 

 










Légende :    VFR   VFR Marginal   IFR   IFR Intensif   IFR Très Intensif
Visi : 
Plafond : 
>= 8 km
>= 3000ft
5 à 8 km
1000 à 3000 ft
1500m à 5 km
500 à 1000 ft
800 à 1500m
200 à 500 ft
< 800m
< 200 ft
Symboles :   Orages  Brouillard  Fortes neiges  Fortes précipitations  Vent > 20 kt
SIGMETs :   Divers  Orages  Givrage  Turbulence  Onde Orograph.  Cendres Volcan.






- Altitude de l'aérodrome : 755 ft
- Code IATA : DRS


EDDC - Dresden Klotzsche

DERNIER METAR :
  • 201620Z 04005KT 0800 R04/1500D FG OVC001 04/04 Q1016 TEMPO 0700 FG

METARs EXPIRÉS :
  • 201550Z 04004KT 010V080 4800 BR BKN003 04/04 Q1016 NOSIG
  • 201520Z 04004KT 7000 SCT004 BKN006 04/04 Q1016 NOSIG
  • 201450Z 02004KT 340V050 7000 -DZ SCT004 BKN006 04/04 Q1016 NOSIG
  • 201420Z 03004KT 4700 -DZ BR FEW003 BKN005 04/04 Q1016 NOSIG
  • 201350Z 02005KT 350V050 4000 -DZ BKN004 04/04 Q1016 NOSIG

TAF AMD TAF EDDC
Valide du 20 à 16h jusqu'au 21 à 12h UTC


201626Z 2016/2112 03003KT 1200 BR BKN003
TEMPO 2016/2108 0300 FG OVC001
BECMG 2108/2111 4000 BKN007



MET'MAP, la Météo Aéronautique d'un coup d'oeil ! - Copyright ORBIFLY Décembre 2007 - Disclaimer

ORBIFLY MET'MAP TEAM :

Programmation & Développement : Alexandra Zaïnal
Conception & Développement : Baudouin d'Aumeries
Co-Programmation & Développement : Marc-Olivier Méhu
Soutien technique & logistique : Manuel Goepfert

Contact : metmap@orbifly.com




SOURCES & CREDITS :

   NOAA